Middlestown, United Kingdom
Current Conditions -  °F | °C
As of 9:20 AM on Friday 28 Nov 2014 (Local Time) from EGNM Reporting Station
Moderate Fog Moderate Fog  
Wind Chill: 43°   Ceiling: Unl
Heat Index: 46°   Visibility: 0.06mi
Dew Point: 46°   Wind: 7mph
Humidity: 100%   Direction: 70°ENE
Pressure: 29.68"   Gusts: NA
Location:  53.65°N, 1.6°W
Report Text: EGNM 280920Z 07006KT 040V110 0100 R32/0225 FG VV/// 08/08 Q1005
Loading
Personal Weather Stations






























Interactive Weather Map New forecast layout! Learn more

10-Day Weather Forecast

Advertisements
Track Severe Weather on mobile